Iva, SC (29655)

2:31 PM EST on March 03, 2015 (GMT -0500)
KSCANDER7 | Change Station
CLOSE
Current Station
Personal Weather Station
Location: Lee Shoals, SC
Elevation: 682 ft
Nearby Weather Stations

Elev 682 ft 34.34 °N, 82.56 °W | Updated 27 seconds ago

Overcast
Overcast
45.7 °F
Feels Like 43 °F
N
5.4
Wind Variable Wind from ENE
Gusts 8.3 mph

Today
High -- | Low -- °F
--% Chance of Precip.
Yesterday
High -- | Low -- °F
Precip. -- in
6:57 AM 6:28 PM
Waxing Gibbous, 97% visible
Pressure 30.22 in
Visibility 5.0 miles
Clouds Overcast 700 ft
Windchill 43 °F
Dew Point 45 °F
Humidity 97%
Rainfall 0.04 in
Snow Depth Not available.
UV 2 out of 12
Pollen .90 out of 12
Air Quality Not available.
Flu Activity Not available.
METAR KAND 031856Z AUTO 06005KT 5SM BR OVC007 07/06 A3022 RMK AO2 RAB38E51 SLP233 P0000 T00720061

More Conditions Fewer Conditions

Pressure 30.22 in
Visibility 5.0 miles
Clouds Overcast 700 ft
Windchill 43 °F
Dew Point 45 °F
Humidity 97%
Rainfall 0.04 in
Snow Depth Not available.
UV 2 out of 12
Pollen .90 out of 12
Air Quality Not available.
Flu Activity Not available.
METAR KAND 031856Z AUTO 06005KT 5SM BR OVC007 07/06 A3022 RMK AO2 RAB38E51 SLP233 P0000 T00720061

More Conditions Fewer Conditions

10-Day Weather Forecast

Almanac

Astronomy

Mar. 03, 2015 Rise Set
Actual Time
Civil Twilight
Nautical Twilight
Astronomical Twilight
Moon
Length of Visible Light
Length of Day
Tomorrow will be .
, % of the Moon is Illuminated

Today's Extremes

State Highs State Lows

Community

WunderPhotos

Upload Photos

1,802,207 photos uploaded!

WunderBlogs® & News

Nearby

Air Quality

  Air Quality AQ Index Pollutant
Not available.

Snow Depth

Station Depth Elevation

Earthquake Activity

City Distance Mag. Time & Date
Minimum magnitude displayed is 2.5.

Coastal Water Temperatures

Place Temperature

Nearby Weather Stations